Time;durP1;ratioP1;P1;durP2;ratioP2;P2;SDS_P1;SDS_P2;PMS_P1;PMS_P2;Temp;Humidity;BMP_temperature;BMP_pressure;BME280_temperature;BME280_humidity;BME280_pressure;Samples;Min_cycle;Max_cycle;Signal;HPM_P1;HPM_P2
2022/07/18 00:00:40;;;;;;;9.95;6.22;;;16.00;99.90;;;;;;4962324;28;20054;-93
2022/07/18 00:03:06;;;;;;;7.25;5.15;;;15.80;99.90;;;;;;4981066;28;20076;-93
2022/07/18 00:05:53;;;;;;;7.10;5.32;;;15.80;99.90;;;;;;5006367;28;20041;-94
2022/07/18 00:08:19;;;;;;;6.82;5.50;;;15.60;99.90;;;;;;5039968;28;20065;-93
2022/07/18 00:10:46;;;;;;;7.65;5.90;;;15.50;99.90;;;;;;5014386;28;20057;-94
2022/07/18 00:13:16;;;;;;;7.25;5.90;;;15.50;99.90;;;;;;5036298;28;20030;-94
2022/07/18 00:15:48;;;;;;;10.38;6.75;;;15.40;99.90;;;;;;4985530;28;20050;-94
2022/07/18 00:18:15;;;;;;;7.70;6.05;;;15.40;99.90;;;;;;4999983;28;20025;-94
2022/07/18 00:20:42;;;;;;;9.75;6.60;;;15.40;99.90;;;;;;5006890;28;20041;-94
2022/07/18 00:23:08;;;;;;;10.55;6.65;;;15.30;99.90;;;;;;4980463;28;20136;-94
2022/07/18 00:25:38;;;;;;;10.68;6.72;;;15.30;99.90;;;;;;4977641;28;20050;-94
2022/07/18 00:28:04;;;;;;;9.32;6.78;;;15.20;99.90;;;;;;4955252;28;20237;-94
2022/07/18 00:30:37;;;;;;;11.25;6.50;;;15.20;99.90;;;;;;4978163;28;20620;-94
2022/07/18 00:33:08;;;;;;;9.75;7.10;;;15.20;99.90;;;;;;4978491;28;20045;-94
2022/07/18 00:35:36;;;;;;;11.85;6.70;;;15.10;99.90;;;;;;4963410;28;20041;-93
2022/07/18 00:38:06;;;;;;;8.95;7.10;;;15.20;99.90;;;;;;4991699;28;20084;-94
2022/07/18 00:40:33;;;;;;;10.32;6.50;;;15.10;99.90;;;;;;4994794;28;20038;-93
2022/07/18 00:43:15;;;;;;;8.18;7.18;;;15.10;99.90;;;;;;4989624;28;20121;-94
2022/07/18 00:45:52;;;;;;;11.40;7.20;;;15.10;99.90;;;;;;4995768;28;20136;-94
2022/07/18 00:48:19;;;;;;;10.30;7.40;;;15.00;99.90;;;;;;4974012;28;20052;-94
2022/07/18 00:50:55;;;;;;;8.50;7.05;;;14.90;99.90;;;;;;5023460;28;20145;-93
2022/07/18 00:53:23;;;;;;;8.98;7.22;;;14.90;99.90;;;;;;5025457;28;20463;-93
2022/07/18 00:55:51;;;;;;;10.43;6.50;;;14.80;99.90;;;;;;4988207;28;20037;-94
2022/07/18 00:58:18;;;;;;;12.45;7.60;;;14.80;99.90;;;;;;4992606;28;20088;-93
2022/07/18 01:03:29;;;;;;;10.18;8.02;;;14.70;99.90;;;;;;5004723;28;20037;-94
2022/07/18 01:05:58;;;;;;;11.63;7.95;;;14.80;99.90;;;;;;4974660;28;20514;-94
2022/07/18 01:08:24;;;;;;;11.25;7.88;;;14.80;99.90;;;;;;4989265;28;20053;-92
2022/07/18 01:10:51;;;;;;;10.35;7.43;;;14.80;99.90;;;;;;4971165;28;20042;-93
2022/07/18 01:13:18;;;;;;;9.13;7.07;;;14.80;99.90;;;;;;4971707;28;20061;-94
2022/07/18 01:15:53;;;;;;;10.90;8.00;;;14.80;99.90;;;;;;5021360;28;20085;-94
2022/07/18 01:18:20;;;;;;;11.18;7.97;;;14.80;99.90;;;;;;4988611;28;20093;-93
2022/07/18 01:20:46;;;;;;;7.80;6.75;;;14.80;99.90;;;;;;5006510;28;20053;-93
2022/07/18 01:23:13;;;;;;;9.32;7.60;;;14.80;99.90;;;;;;5024805;28;20053;-93
2022/07/18 01:25:39;;;;;;;9.43;7.28;;;14.80;99.90;;;;;;4990329;28;20053;-95
2022/07/18 01:28:12;;;;;;;11.13;7.82;;;14.80;99.90;;;;;;5007444;28;20052;-95
2022/07/18 01:30:41;;;;;;;10.90;7.88;;;14.80;99.90;;;;;;4993231;28;20113;-94
2022/07/18 01:33:07;;;;;;;11.95;8.07;;;14.80;99.90;;;;;;4992729;28;20038;-94
2022/07/18 01:35:40;;;;;;;10.25;8.30;;;14.80;99.90;;;;;;5020599;28;20057;-95
2022/07/18 01:38:39;;;;;;;9.95;8.65;;;14.70;99.90;;;;;;5004968;28;20037;-93
2022/07/18 01:41:30;;;;;;;10.07;7.95;;;14.70;99.90;;;;;;5062705;22;20045;-83
2022/07/18 01:43:56;;;;;;;12.07;8.43;;;14.70;99.90;;;;;;4950510;28;20053;-84
2022/07/18 01:46:22;;;;;;;11.10;8.43;;;14.80;99.90;;;;;;5002603;28;20303;-83
2022/07/18 01:48:48;;;;;;;10.50;8.50;;;14.70;99.90;;;;;;4975036;28;20049;-83
2022/07/18 01:51:14;;;;;;;12.55;8.57;;;14.70;99.90;;;;;;4965479;28;20053;-83
2022/07/18 01:53:41;;;;;;;11.18;7.90;;;14.70;99.90;;;;;;4978705;28;20045;-83
2022/07/18 01:56:11;;;;;;;11.52;8.35;;;14.70;99.90;;;;;;4959920;28;20079;-83
2022/07/18 01:58:37;;;;;;;10.25;7.80;;;14.70;99.90;;;;;;4973584;28;20561;-84
2022/07/18 02:01:03;;;;;;;11.43;8.32;;;14.70;99.90;;;;;;4984027;28;20045;-83
2022/07/18 02:03:29;;;;;;;11.40;8.18;;;14.60;99.90;;;;;;4966825;28;20513;-83
2022/07/18 02:05:55;;;;;;;9.05;7.20;;;14.70;99.90;;;;;;5002943;28;20132;-83
2022/07/18 02:08:21;;;;;;;9.30;6.97;;;14.60;99.90;;;;;;4982204;28;20109;-83
2022/07/18 02:10:48;;;;;;;11.98;7.82;;;14.60;99.90;;;;;;4985808;28;20133;-83
2022/07/18 02:13:14;;;;;;;8.93;7.32;;;14.60;99.90;;;;;;4972596;28;20045;-83
2022/07/18 02:15:40;;;;;;;11.07;7.93;;;14.60;99.90;;;;;;4961173;28;20103;-83
2022/07/18 02:18:06;;;;;;;13.60;7.88;;;14.60;99.90;;;;;;4972777;28;21468;-83
2022/07/18 02:20:33;;;;;;;8.35;7.10;;;14.60;99.90;;;;;;4962562;28;20072;-83
2022/07/18 02:23:00;;;;;;;9.48;7.50;;;14.60;99.90;;;;;;4998370;28;20045;-82
2022/07/18 02:25:26;;;;;;;9.43;7.22;;;14.60;99.90;;;;;;4974731;28;20064;-83
2022/07/18 02:27:55;;;;;;;8.60;6.95;;;14.60;99.90;;;;;;4990631;28;20706;-83
2022/07/18 02:30:21;;;;;;;9.27;6.97;;;14.60;99.90;;;;;;4961547;28;20053;-81
2022/07/18 02:32:47;;;;;;;10.65;7.78;;;14.60;99.90;;;;;;4985481;28;20048;-82
2022/07/18 02:35:14;;;;;;;12.82;7.72;;;14.60;99.90;;;;;;4989692;28;20045;-83
2022/07/18 02:37:41;;;;;;;8.80;6.97;;;14.60;99.90;;;;;;4971662;28;20046;-83
2022/07/18 02:40:10;;;;;;;11.32;6.95;;;14.50;99.90;;;;;;4950094;28;20096;-82
2022/07/18 02:42:37;;;;;;;11.15;7.93;;;14.50;99.90;;;;;;4963340;28;20093;-83
2022/07/18 02:45:05;;;;;;;8.63;7.03;;;14.50;99.90;;;;;;4965326;28;20046;-83
2022/07/18 02:47:31;;;;;;;11.45;7.22;;;14.50;99.90;;;;;;4965569;28;20050;-83
2022/07/18 02:49:57;;;;;;;8.73;7.70;;;14.40;99.90;;;;;;4962912;28;20495;-82
2022/07/18 02:52:23;;;;;;;12.10;6.95;;;14.40;99.90;;;;;;4981793;28;20062;-82
2022/07/18 02:54:49;;;;;;;9.98;7.07;;;14.40;99.90;;;;;;4951427;28;20058;-82
2022/07/18 02:57:15;;;;;;;9.73;7.35;;;14.30;99.90;;;;;;4963725;28;20467;-82
2022/07/18 02:59:41;;;;;;;9.68;7.32;;;14.30;99.90;;;;;;4940708;28;20402;-82
2022/07/18 03:02:07;;;;;;;11.05;7.68;;;14.30;99.90;;;;;;4957938;28;20061;-82
2022/07/18 03:04:33;;;;;;;13.93;8.63;;;14.30;99.90;;;;;;4948472;28;20068;-83
2022/07/18 03:07:00;;;;;;;10.23;7.97;;;14.20;99.90;;;;;;4948021;28;20061;-82
2022/07/18 03:09:27;;;;;;;11.70;7.80;;;14.20;99.90;;;;;;4963860;28;20403;-83
2022/07/18 03:11:56;;;;;;;10.10;8.05;;;14.10;99.90;;;;;;4964879;28;20054;-83
2022/07/18 03:14:22;;;;;;;11.75;8.30;;;14.10;99.90;;;;;;4982401;28;20053;-83
2022/07/18 03:16:49;;;;;;;11.13;8.25;;;14.10;99.90;;;;;;4932872;28;20042;-83
2022/07/18 03:19:16;;;;;;;11.65;9.48;;;14.10;99.90;;;;;;4947832;28;20090;-83
2022/07/18 03:21:43;;;;;;;12.45;8.90;;;14.10;99.90;;;;;;4952946;28;20652;-82
2022/07/18 03:24:10;;;;;;;13.00;10.23;;;14.10;99.90;;;;;;4943524;28;20045;-83
2022/07/18 03:26:38;;;;;;;16.30;10.63;;;14.10;99.90;;;;;;4950661;28;20425;-83
2022/07/18 03:29:04;;;;;;;14.80;11.18;;;14.10;99.90;;;;;;4996925;28;20296;-83
2022/07/18 03:31:30;;;;;;;15.93;12.00;;;14.10;99.90;;;;;;4948239;28;20050;-82
2022/07/18 03:33:56;;;;;;;15.07;11.35;;;14.10;99.90;;;;;;4933220;28;20545;-82
2022/07/18 03:36:22;;;;;;;12.85;10.65;;;14.10;99.90;;;;;;4934273;28;20125;-83
2022/07/18 03:38:48;;;;;;;12.13;9.48;;;14.10;99.90;;;;;;4912915;28;20050;-83
2022/07/18 03:41:14;;;;;;;12.80;10.35;;;14.10;99.90;;;;;;4920574;28;20132;-82
2022/07/18 03:43:41;;;;;;;13.95;10.82;;;14.10;99.90;;;;;;4977270;28;20418;-82
2022/07/18 03:46:07;;;;;;;12.13;9.43;;;14.10;99.90;;;;;;4966128;28;20133;-83
2022/07/18 03:48:35;;;;;;;10.75;9.43;;;14.10;99.90;;;;;;5005357;28;20049;-82
2022/07/18 03:51:02;;;;;;;13.43;10.13;;;14.10;99.90;;;;;;5011030;28;20050;-83
2022/07/18 03:53:28;;;;;;;12.48;9.82;;;14.00;99.90;;;;;;4945027;28;20049;-83
2022/07/18 03:55:57;;;;;;;13.68;9.93;;;14.00;99.90;;;;;;4951794;28;20072;-83
2022/07/18 03:58:23;;;;;;;11.40;10.20;;;14.00;99.90;;;;;;4966314;28;20054;-82
2022/07/18 04:00:49;;;;;;;15.20;10.45;;;14.00;99.90;;;;;;4965224;28;20074;-82
2022/07/18 04:03:17;;;;;;;14.00;10.50;;;14.00;99.90;;;;;;4932645;28;20486;-82
2022/07/18 04:05:43;;;;;;;16.15;10.10;;;14.10;99.90;;;;;;4949945;28;20096;-82
2022/07/18 04:08:10;;;;;;;11.70;10.00;;;14.10;99.90;;;;;;4950820;28;20836;-82
2022/07/18 04:10:39;;;;;;;12.90;10.02;;;14.20;99.90;;;;;;4978085;28;20072;-82
2022/07/18 04:13:07;;;;;;;16.30;11.30;;;14.20;99.90;;;;;;4984029;28;20385;-82
2022/07/18 04:15:33;;;;;;;12.30;11.02;;;14.20;99.90;;;;;;4962822;28;20462;-82
2022/07/18 04:17:59;;;;;;;13.00;10.00;;;14.30;99.90;;;;;;4967578;28;20423;-82
2022/07/18 04:20:28;;;;;;;14.27;11.85;;;14.30;99.90;;;;;;4965303;28;20494;-83
2022/07/18 04:22:59;;;;;;;14.65;10.65;;;14.30;99.90;;;;;;4944752;28;20506;-83
2022/07/18 04:25:28;;;;;;;12.57;11.27;;;14.40;99.90;;;;;;5002323;28;20623;-84
2022/07/18 04:27:56;;;;;;;13.57;10.52;;;14.50;99.90;;;;;;4958645;28;20037;-83
2022/07/18 04:30:24;;;;;;;14.05;11.18;;;14.60;99.90;;;;;;4965912;28;20096;-83
2022/07/18 04:32:51;;;;;;;13.48;9.98;;;14.70;99.90;;;;;;4961048;28;20038;-82
2022/07/18 04:35:17;;;;;;;16.10;11.05;;;14.70;99.90;;;;;;4951081;28;20072;-82
2022/07/18 04:37:43;;;;;;;12.13;9.77;;;14.80;99.90;;;;;;4981171;28;20349;-83
2022/07/18 04:40:11;;;;;;;12.40;9.88;;;14.80;99.90;;;;;;4992750;28;20038;-82
2022/07/18 04:42:37;;;;;;;13.25;9.90;;;14.90;99.90;;;;;;4955187;28;20132;-83
2022/07/18 04:45:05;;;;;;;13.50;9.73;;;15.00;99.90;;;;;;4949937;28;20045;-82
2022/07/18 04:47:31;;;;;;;12.43;9.55;;;15.10;99.90;;;;;;4970891;28;20056;-82
2022/07/18 04:49:57;;;;;;;12.77;9.30;;;15.20;99.90;;;;;;4997737;28;20528;-82
2022/07/18 04:52:23;;;;;;;11.25;9.93;;;15.30;99.90;;;;;;4949717;28;20041;-82
2022/07/18 04:54:50;;;;;;;16.20;10.13;;;15.30;99.90;;;;;;4957600;28;20053;-82
2022/07/18 04:57:17;;;;;;;12.10;9.98;;;15.40;99.90;;;;;;4965893;28;20570;-83
2022/07/18 04:59:44;;;;;;;11.73;9.30;;;15.60;99.90;;;;;;4983410;28;20042;-85
2022/07/18 05:02:14;;;;;;;10.52;8.75;;;15.70;99.90;;;;;;4948824;28;20070;-83
2022/07/18 05:04:40;;;;;;;13.68;9.88;;;15.70;99.90;;;;;;4983872;28;20096;-82
2022/07/18 05:07:06;;;;;;;11.07;9.05;;;15.70;99.90;;;;;;4966500;28;20046;-81
2022/07/18 05:09:33;;;;;;;11.45;8.85;;;15.80;99.90;;;;;;4980233;28;20038;-82
2022/07/18 05:11:59;;;;;;;14.30;9.13;;;15.90;99.90;;;;;;4968008;28;20049;-82
2022/07/18 05:14:25;;;;;;;10.70;8.95;;;15.90;99.90;;;;;;4938546;28;20057;-82
2022/07/18 05:16:51;;;;;;;11.38;8.90;;;16.00;99.90;;;;;;4977303;28;20050;-83
2022/07/18 05:19:17;;;;;;;11.20;8.82;;;16.00;99.90;;;;;;4998188;28;20560;-82
2022/07/18 05:21:44;;;;;;;11.50;7.95;;;16.10;99.90;;;;;;4951425;28;20045;-81
2022/07/18 05:24:11;;;;;;;10.23;8.32;;;16.20;99.90;;;;;;4980735;28;20155;-82
2022/07/18 05:26:37;;;;;;;11.57;8.63;;;16.30;99.90;;;;;;4982136;28;20049;-80
2022/07/18 05:29:04;;;;;;;12.73;8.77;;;16.30;99.90;;;;;;4958776;28;20303;-80
2022/07/18 05:31:30;;;;;;;10.35;7.72;;;16.40;99.90;;;;;;4996836;28;20518;-80
2022/07/18 05:33:56;;;;;;;12.30;7.90;;;16.40;99.90;;;;;;4950908;28;20554;-80
2022/07/18 05:36:22;;;;;;;12.93;8.65;;;16.40;99.90;;;;;;4963589;28;20065;-79
2022/07/18 05:38:48;;;;;;;10.13;7.30;;;16.40;99.90;;;;;;4954054;28;20088;-80
2022/07/18 05:41:14;;;;;;;11.77;8.00;;;16.40;99.90;;;;;;4980497;28;20046;-80
2022/07/18 05:43:41;;;;;;;12.82;8.15;;;16.50;99.90;;;;;;4931149;28;20050;-79
2022/07/18 05:46:07;;;;;;;8.73;7.25;;;16.60;99.90;;;;;;4997458;28;20043;-77
2022/07/18 05:48:33;;;;;;;11.65;8.32;;;16.90;99.90;;;;;;4945580;28;20047;-80
2022/07/18 05:50:59;;;;;;;14.02;8.18;;;17.10;99.90;;;;;;4968915;28;20078;-80
2022/07/18 05:53:25;;;;;;;12.73;7.57;;;17.40;99.90;;;;;;4929645;28;20148;-80
2022/07/18 05:55:51;;;;;;;10.25;7.68;;;17.70;99.90;;;;;;4946658;28;20050;-80
2022/07/18 05:58:17;;;;;;;12.38;7.93;;;17.80;99.90;;;;;;4943923;28;20082;-80
2022/07/18 06:00:44;;;;;;;10.93;7.45;;;17.90;99.90;;;;;;4949832;28;20339;-80
2022/07/18 06:03:11;;;;;;;12.23;7.45;;;18.00;99.90;;;;;;4945829;28;20172;-80
2022/07/18 06:05:37;;;;;;;11.30;7.18;;;17.90;99.90;;;;;;4935128;28;20042;-80
2022/07/18 06:08:03;;;;;;;11.27;7.30;;;17.80;99.90;;;;;;4957678;28;20200;-80
2022/07/18 06:10:29;;;;;;;12.20;6.78;;;17.90;99.90;;;;;;4975080;28;20478;-79
2022/07/18 06:12:55;;;;;;;12.98;7.13;;;18.00;99.90;;;;;;4958608;28;20040;-81
2022/07/18 06:15:22;;;;;;;8.02;6.30;;;18.20;99.90;;;;;;4936088;28;20437;-80
2022/07/18 06:17:48;;;;;;;8.52;6.22;;;18.30;99.90;;;;;;4945072;28;20506;-80
2022/07/18 06:20:14;;;;;;;8.80;6.45;;;18.40;99.90;;;;;;4946246;28;20593;-80
2022/07/18 06:22:41;;;;;;;12.93;6.68;;;18.40;99.90;;;;;;4963152;28;20632;-80
2022/07/18 06:25:08;;;;;;;7.90;6.35;;;18.50;99.90;;;;;;4962448;28;20042;-80
2022/07/18 06:27:35;;;;;;;9.45;6.25;;;18.60;99.90;;;;;;4974657;28;20116;-84
2022/07/18 06:30:04;;;;;;;7.72;5.88;;;18.70;99.90;;;;;;4942709;28;20104;-81
2022/07/18 06:32:30;;;;;;;9.25;5.32;;;18.80;99.90;;;;;;4958275;28;20827;-81
2022/07/18 06:34:57;;;;;;;9.05;5.93;;;19.00;99.90;;;;;;4947329;28;20415;-81
2022/07/18 06:37:23;;;;;;;9.50;5.57;;;19.10;99.90;;;;;;4930333;28;20682;-81
2022/07/18 06:39:49;;;;;;;7.25;5.43;;;19.20;99.90;;;;;;4943835;28;20831;-81
2022/07/18 06:42:15;;;;;;;10.85;8.95;;;19.50;99.90;;;;;;4954608;28;20111;-81
2022/07/18 06:44:41;;;;;;;9.85;5.57;;;19.70;99.90;;;;;;4960002;28;20078;-82
2022/07/18 06:47:07;;;;;;;9.10;5.68;;;19.80;99.90;;;;;;4922029;28;20050;-81
2022/07/18 06:49:33;;;;;;;8.48;4.97;;;19.90;99.90;;;;;;4952234;28;20857;-84
2022/07/18 06:51:59;;;;;;;8.65;5.55;;;19.90;99.90;;;;;;4979661;28;20095;-82
2022/07/18 06:54:27;;;;;;;8.52;4.70;;;20.00;99.90;;;;;;4949864;28;20050;-82
2022/07/18 06:56:58;;;;;;;9.50;4.90;;;20.20;99.90;;;;;;4982560;28;20554;-82
2022/07/18 06:59:25;;;;;;;12.43;5.65;;;20.50;99.90;;;;;;4984732;28;20474;-82
2022/07/18 07:01:51;;;;;;;7.20;4.82;;;20.80;99.90;;;;;;4965644;28;20453;-81
2022/07/18 07:04:17;;;;;;;8.13;4.93;;;21.10;99.90;;;;;;4986300;28;20072;-83
2022/07/18 07:06:46;;;;;;;9.27;5.63;;;21.60;99.90;;;;;;4963729;28;20121;-82
2022/07/18 07:09:12;;;;;;;8.05;4.80;;;22.00;99.90;;;;;;4977349;28;20528;-81
2022/07/18 07:11:38;;;;;;;9.80;5.00;;;22.20;99.90;;;;;;4940405;28;20075;-82
2022/07/18 07:14:09;;;;;;;8.40;4.80;;;22.50;99.90;;;;;;4985563;28;20328;-82
2022/07/18 07:16:35;;;;;;;9.45;5.00;;;23.00;99.90;;;;;;4976702;28;20435;-82
2022/07/18 07:19:01;;;;;;;11.68;4.50;;;23.10;99.90;;;;;;4970183;28;20042;-82
2022/07/18 07:21:27;;;;;;;11.77;4.82;;;23.20;99.90;;;;;;4972268;28;20125;-81
2022/07/18 07:23:54;;;;;;;9.80;4.82;;;23.30;99.90;;;;;;4967244;28;20502;-83
2022/07/18 07:26:20;;;;;;;9.25;3.70;;;23.80;99.90;;;;;;4953438;28;20041;-82
2022/07/18 07:28:46;;;;;;;8.50;3.72;;;23.70;99.90;;;;;;4959519;28;20054;-82
2022/07/18 07:31:12;;;;;;;5.80;2.75;;;23.90;99.90;;;;;;4969181;28;20081;-82
2022/07/18 07:33:38;;;;;;;6.28;2.88;;;24.10;99.90;;;;;;5024244;28;20084;-82
2022/07/18 07:36:05;;;;;;;7.40;3.22;;;24.40;99.90;;;;;;4953045;28;20057;-82
2022/07/18 07:38:31;;;;;;;4.75;2.55;;;24.30;99.90;;;;;;4953029;28;20077;-83
2022/07/18 07:41:01;;;;;;;8.75;3.25;;;24.70;99.90;;;;;;4985594;28;20046;-82
2022/07/18 07:43:27;;;;;;;8.63;2.95;;;25.00;99.90;;;;;;4960350;28;20080;-82
2022/07/18 07:45:55;;;;;;;7.45;2.95;;;24.90;99.90;;;;;;4966595;28;20053;-82
2022/07/18 07:48:22;;;;;;;6.20;2.88;;;25.00;99.90;;;;;;4970014;28;20577;-82
2022/07/18 07:50:50;;;;;;;7.10;3.08;;;25.00;99.90;;;;;;4953815;28;20066;-82
2022/07/18 07:53:17;;;;;;;7.53;3.00;;;25.40;99.90;;;;;;4982873;28;20054;-82
2022/07/18 07:55:43;;;;;;;5.25;2.50;;;25.50;99.40;;;;;;4963306;28;20045;-82
2022/07/18 07:58:10;;;;;;;6.07;2.78;;;25.30;98.00;;;;;;4992033;28;20398;-82
2022/07/18 08:00:36;;;;;;;5.20;2.70;;;25.10;97.50;;;;;;4985702;28;20042;-82
2022/07/18 08:03:04;;;;;;;3.97;2.70;;;25.20;99.10;;;;;;4964718;28;20053;-82
2022/07/18 08:05:35;;;;;;;6.45;3.13;;;25.40;99.40;;;;;;4986764;28;20148;-82
2022/07/18 08:08:01;;;;;;;8.85;2.92;;;25.70;99.50;;;;;;4983272;28;20060;-82
2022/07/18 08:10:28;;;;;;;8.75;2.80;;;26.10;98.00;;;;;;4983961;28;20406;-82
2022/07/18 08:12:54;;;;;;;8.98;2.60;;;26.10;96.20;;;;;;5001623;28;20060;-82
2022/07/18 08:15:21;;;;;;;5.65;3.00;;;26.10;95.80;;;;;;4940921;28;20124;-82
2022/07/18 08:17:47;;;;;;;6.22;3.15;;;26.40;95.80;;;;;;4958067;28;20046;-83
2022/07/18 08:20:16;;;;;;;7.32;3.65;;;26.60;94.70;;;;;;4967972;28;20038;-82
2022/07/18 08:23:05;;;;;;;7.07;3.08;;;26.40;94.10;;;;;;4953900;28;20455;-82
2022/07/18 08:25:34;;;;;;;5.97;1.85;;;26.20;91.40;;;;;;4982607;28;20054;-82
2022/07/18 08:28:01;;;;;;;5.38;2.28;;;26.50;93.80;;;;;;4967053;28;20042;-82
2022/07/18 08:30:28;;;;;;;7.53;1.83;;;26.50;92.80;;;;;;4982838;28;20506;-82
2022/07/18 08:32:54;;;;;;;10.27;2.85;;;26.70;91.90;;;;;;4999186;28;20057;-82
2022/07/18 08:35:21;;;;;;;6.70;2.30;;;26.70;91.20;;;;;;5000583;28;20054;-81
2022/07/18 08:37:47;;;;;;;5.20;2.13;;;27.10;90.90;;;;;;4966245;28;20606;-82
2022/07/18 08:40:16;;;;;;;8.57;2.30;;;27.30;90.60;;;;;;4983741;28;20129;-82
2022/07/18 08:42:42;;;;;;;7.28;2.20;;;27.60;91.10;;;;;;4991101;28;20097;-82
2022/07/18 08:45:09;;;;;;;8.35;2.33;;;27.40;87.60;;;;;;4952296;28;20048;-82
2022/07/18 08:47:36;;;;;;;5.75;2.47;;;28.10;87.00;;;;;;4936867;28;20112;-82
2022/07/18 08:50:02;;;;;;;6.07;1.70;;;28.60;85.00;;;;;;4972114;28;20061;-82
2022/07/18 08:52:29;;;;;;;6.70;2.53;;;28.80;79.30;;;;;;4973052;28;20060;-82
2022/07/18 08:54:56;;;;;;;4.95;1.73;;;28.80;76.80;;;;;;4967005;28;20508;-83
2022/07/18 08:57:23;;;;;;;4.22;1.33;;;28.80;71.10;;;;;;4966910;28;20042;-82
2022/07/18 08:59:50;;;;;;;6.38;2.17;;;29.20;76.40;;;;;;5004878;28;20057;-84
2022/07/18 09:02:16;;;;;;;4.60;1.80;;;29.50;75.50;;;;;;4987854;28;20713;-83
2022/07/18 09:04:43;;;;;;;4.53;1.65;;;29.30;69.60;;;;;;4981638;28;20081;-83
2022/07/18 09:07:22;;;;;;;5.28;1.80;;;29.50;63.80;;;;;;4952566;28;20057;-83
2022/07/18 09:09:53;;;;;;;7.05;1.38;;;29.40;59.90;;;;;;4985367;28;20052;-83
2022/07/18 09:12:20;;;;;;;5.10;1.75;;;29.50;58.40;;;;;;4967720;28;20060;-83
2022/07/18 09:14:47;;;;;;;7.63;2.00;;;29.30;58.60;;;;;;4949675;28;20555;-83
2022/07/18 09:17:20;;;;;;;6.47;1.80;;;29.10;58.00;;;;;;4966232;28;20376;-83
2022/07/18 09:20:08;;;;;;;6.97;1.90;;;29.20;60.10;;;;;;4988473;28;20793;-83
2022/07/18 09:22:37;;;;;;;8.30;1.83;;;29.10;60.00;;;;;;4983157;28;20159;-83
2022/07/18 09:25:12;;;;;;;5.57;1.50;;;29.20;56.00;;;;;;4950213;28;20040;-85
2022/07/18 09:27:43;;;;;;;6.47;2.08;;;29.20;56.80;;;;;;4985920;28;20527;-84
2022/07/18 09:30:32;;;;;;;4.90;1.70;;;29.50;60.10;;;;;;4983521;28;20046;-86
2022/07/18 09:33:05;;;;;;;6.38;1.98;;;30.00;61.50;;;;;;4969445;28;20160;-85
2022/07/18 09:35:34;;;;;;;4.78;1.55;;;30.70;57.70;;;;;;4969565;28;20266;-85
2022/07/18 09:38:08;;;;;;;5.65;2.00;;;30.90;59.10;;;;;;4967681;28;20069;-85
2022/07/18 09:40:43;;;;;;;6.03;2.00;;;30.80;54.50;;;;;;4983211;28;20560;-86
2022/07/18 09:43:23;;;;;;;5.68;2.72;;;31.20;57.90;;;;;;4963114;28;20061;-86
2022/07/18 09:45:51;;;;;;;8.10;1.73;;;31.30;54.40;;;;;;4963386;28;20122;-83
2022/07/18 09:48:24;;;;;;;6.13;1.73;;;31.50;54.60;;;;;;4974555;28;20058;-83
2022/07/18 09:50:53;;;;;;;5.68;1.83;;;31.70;53.40;;;;;;4960970;28;20042;-83
2022/07/18 09:53:25;;;;;;;4.53;1.75;;;31.80;53.20;;;;;;4984398;28;20365;-85
2022/07/18 09:55:52;;;;;;;3.55;1.80;;;32.00;54.20;;;;;;4961729;28;20061;-84
2022/07/18 09:58:23;;;;;;;6.63;1.98;;;32.00;51.50;;;;;;4981751;28;20046;-84
2022/07/18 10:00:49;;;;;;;5.55;1.73;;;32.00;49.90;;;;;;4962466;28;20156;-84
2022/07/18 10:03:17;;;;;;;3.90;1.70;;;32.20;49.50;;;;;;4949181;28;20419;-83
2022/07/18 10:05:45;;;;;;;5.22;2.60;;;32.10;49.40;;;;;;4962989;28;20492;-84
2022/07/18 10:08:16;;;;;;;3.38;1.90;;;32.20;50.00;;;;;;4947480;28;20109;-83
2022/07/18 10:10:47;;;;;;;6.85;2.10;;;32.20;46.70;;;;;;4964416;28;20596;-84
2022/07/18 10:13:15;;;;;;;6.32;2.97;;;32.40;48.00;;;;;;4974342;28;20506;-85
2022/07/18 10:15:43;;;;;;;5.85;1.83;;;32.60;48.20;;;;;;4927561;28;20776;-84
2022/07/18 10:18:15;;;;;;;3.60;1.90;;;32.50;47.30;;;;;;4947863;28;20142;-84
2022/07/18 10:20:54;;;;;;;3.88;2.35;;;32.50;47.40;;;;;;4973673;28;20407;-85
2022/07/18 10:23:21;;;;;;;7.97;2.00;;;32.40;44.70;;;;;;4947881;28;20101;-85
2022/07/18 10:26:15;;;;;;;5.57;1.90;;;32.50;48.10;;;;;;4986809;28;20093;-85
2022/07/18 10:29:00;;;;;;;5.35;1.80;;;32.50;46.20;;;;;;4978849;28;20047;-85
2022/07/18 10:31:30;;;;;;;5.82;3.58;;;32.40;45.60;;;;;;4956810;28;20410;-84
2022/07/18 10:34:09;;;;;;;4.68;2.97;;;32.40;45.50;;;;;;4944928;28;20089;-87
2022/07/18 10:36:37;;;;;;;6.75;2.10;;;32.60;43.60;;;;;;4951219;28;20039;-85
2022/07/18 10:39:23;;;;;;;6.15;2.45;;;32.80;45.30;;;;;;4943911;28;20064;-86
2022/07/18 10:41:52;;;;;;;6.05;2.00;;;32.90;45.40;;;;;;4973739;28;20053;-87
2022/07/18 10:44:30;;;;;;;4.50;2.10;;;33.20;45.30;;;;;;4991492;28;20465;-86
2022/07/18 10:47:17;;;;;;;4.32;1.60;;;33.50;43.00;;;;;;4991547;28;20053;-86
2022/07/18 10:49:49;;;;;;;5.45;2.78;;;33.70;45.00;;;;;;4989724;28;20045;-87
2022/07/18 10:52:33;;;;;;;5.78;2.88;;;34.20;43.70;;;;;;5009767;28;20106;-86
2022/07/18 10:55:08;;;;;;;7.80;1.98;;;34.00;43.00;;;;;;4959592;28;20049;-86
2022/07/18 10:57:40;;;;;;;4.68;2.67;;;34.00;41.70;;;;;;4991740;28;20148;-86
2022/07/18 11:00:10;;;;;;;6.20;2.00;;;33.90;40.70;;;;;;4972619;28;20509;-86
2022/07/18 11:02:46;;;;;;;3.70;1.90;;;33.90;41.10;;;;;;4965886;28;20049;-85
2022/07/18 11:05:25;;;;;;;3.63;2.10;;;34.10;38.90;;;;;;5007409;28;20042;-86
2022/07/18 11:08:03;;;;;;;4.75;2.33;;;34.00;41.00;;;;;;4970456;28;20565;-85
2022/07/18 11:10:49;;;;;;;4.82;2.50;;;34.00;40.00;;;;;;4984798;28;20630;-84
2022/07/18 11:13:33;;;;;;;4.80;1.95;;;34.30;39.10;;;;;;4964744;28;20164;-83
2022/07/18 11:16:12;;;;;;;3.95;2.03;;;34.40;40.20;;;;;;4979693;28;20057;-84
2022/07/18 11:18:39;;;;;;;;;;;34.30;38.20;;;;;;4976083;28;20510;-84
2022/07/18 11:21:19;;;;;;;4.70;2.40;;;34.00;40.10;;;;;;4988415;28;20290;-85
2022/07/18 11:23:47;;;;;;;4.18;1.73;;;33.90;39.50;;;;;;4974714;28;20533;-85
2022/07/18 11:26:21;;;;;;;5.68;2.83;;;33.90;39.00;;;;;;4972720;28;20524;-86
2022/07/18 11:28:49;;;;;;;4.05;2.20;;;33.90;38.00;;;;;;4968865;28;20341;-86
2022/07/18 11:31:15;;;;;;;6.35;2.97;;;34.10;38.30;;;;;;4974271;28;20049;-85
2022/07/18 11:33:46;;;;;;;5.45;2.50;;;34.10;39.10;;;;;;4965987;28;20048;-86
2022/07/18 11:36:13;;;;;;;4.60;2.20;;;33.80;37.40;;;;;;4975649;28;20408;-85
2022/07/18 11:38:54;;;;;;;4.95;2.33;;;34.00;40.00;;;;;;4973378;28;20053;-86
2022/07/18 11:41:22;;;;;;;4.90;2.00;;;34.50;37.70;;;;;;4949859;28;20042;-86
2022/07/18 11:43:50;;;;;;;5.18;2.58;;;34.40;37.80;;;;;;4989885;28;20042;-87
2022/07/18 11:46:19;;;;;;;4.15;2.30;;;34.20;37.10;;;;;;4969057;28;20054;-86
2022/07/18 11:48:47;;;;;;;4.15;2.15;;;34.60;35.70;;;;;;4984521;28;20058;-86
2022/07/18 11:51:15;;;;;;;5.80;2.83;;;34.40;36.30;;;;;;4965212;28;20053;-85
2022/07/18 11:53:48;;;;;;;5.38;2.53;;;33.90;38.10;;;;;;4986694;28;20525;-85
2022/07/18 11:56:15;;;;;;;5.43;2.42;;;33.40;37.30;;;;;;5000913;28;20050;-85
2022/07/18 11:58:43;;;;;;;5.45;2.80;;;33.00;38.00;;;;;;4974069;28;20516;-85
2022/07/18 12:01:10;;;;;;;4.90;2.53;;;32.90;38.20;;;;;;4968845;28;20494;-84
2022/07/18 12:03:40;;;;;;;5.28;2.72;;;32.50;38.50;;;;;;4968784;28;20419;-85
2022/07/18 12:06:12;;;;;;;5.40;2.80;;;32.10;38.10;;;;;;4950385;28;20406;-87
2022/07/18 12:08:46;;;;;;;5.90;3.17;;;32.30;37.80;;;;;;4974832;28;20397;-85
2022/07/18 12:11:17;;;;;;;5.25;3.40;;;32.20;38.20;;;;;;4998214;28;20050;-81
2022/07/18 12:14:04;;;;;;;5.15;2.50;;;32.30;37.90;;;;;;5001691;28;20042;-82
2022/07/18 12:16:40;;;;;;;6.28;2.83;;;32.10;38.00;;;;;;5024902;28;20042;-81
2022/07/18 12:19:12;;;;;;;6.28;3.22;;;31.90;37.50;;;;;;4999181;28;20045;-82
2022/07/18 12:21:53;;;;;;;5.55;2.55;;;32.10;37.20;;;;;;4983485;28;20046;-82
2022/07/18 12:24:32;;;;;;;4.50;2.90;;;32.40;37.20;;;;;;4979819;28;20504;-81
2022/07/18 12:27:23;;;;;;;5.68;2.65;;;33.00;38.00;;;;;;4951636;28;20099;-82
2022/07/18 12:30:11;;;;;;;5.07;2.95;;;33.50;36.80;;;;;;4998382;28;20050;-82
2022/07/18 12:32:54;;;;;;;8.68;6.45;;;33.70;36.50;;;;;;4981189;28;20054;-82
2022/07/18 12:35:28;;;;;;;4.43;2.60;;;33.40;37.70;;;;;;4967212;28;20049;-82
2022/07/18 12:37:56;;;;;;;4.95;2.70;;;33.00;36.10;;;;;;4983908;28;20204;-82
2022/07/18 12:40:25;;;;;;;5.55;2.83;;;32.60;36.70;;;;;;4998583;28;20125;-81
2022/07/18 12:43:11;;;;;;;26.00;23.27;;;32.60;37.90;;;;;;4982297;28;20054;-85
2022/07/18 12:45:38;;;;;;;4.85;3.60;;;32.90;38.40;;;;;;4950859;28;20049;-81
2022/07/18 12:48:08;;;;;;;10.98;9.93;;;33.00;39.20;;;;;;4967696;28;20360;-84
2022/07/18 12:50:35;;;;;;;11.60;10.40;;;33.40;39.40;;;;;;4998010;28;20047;-84
2022/07/18 12:53:01;;;;;;;12.70;11.35;;;33.60;38.70;;;;;;4965474;28;20129;-84
2022/07/18 12:55:27;;;;;;;4.90;3.17;;;33.90;37.40;;;;;;4957034;28;20053;-84